createdAt,value
2022-10-14T00:02:16.764Z,98.48
2022-10-14T00:04:44.382Z,98.09
2022-10-14T00:07:12.055Z,98.33
2022-10-14T00:09:41.998Z,98.21
2022-10-14T00:12:11.025Z,98.34
2022-10-14T00:14:38.653Z,97.97
2022-10-14T00:17:06.347Z,97.85
2022-10-14T00:19:33.906Z,97.82
2022-10-14T00:22:01.526Z,98.11
2022-10-14T00:24:29.236Z,98.09
2022-10-14T00:26:56.843Z,97.82
2022-10-14T00:29:25.763Z,98.01
2022-10-14T00:31:53.692Z,97.84
2022-10-14T00:34:21.326Z,97.96
2022-10-14T00:36:48.998Z,98.18
2022-10-14T00:39:16.653Z,98.11
2022-10-14T00:41:44.883Z,98.21
2022-10-14T00:44:45.726Z,98.07
2022-10-14T00:47:14.581Z,98.24
2022-10-14T00:49:43.416Z,98.15
2022-10-14T00:52:15.371Z,97.73
2022-10-14T00:54:45.535Z,97.81
2022-10-14T00:57:13.208Z,97.65
2022-10-14T00:59:40.797Z,97.85
2022-10-14T01:02:08.301Z,97.77
2022-10-14T01:04:39.011Z,97.66
2022-10-14T01:07:12.273Z,97.48
2022-10-14T01:09:42.475Z,97.18
2022-10-14T01:12:28.581Z,97.14
2022-10-14T01:15:04.942Z,97.15
2022-10-14T01:17:39.620Z,96.75
2022-10-14T01:20:39.661Z,96.97
2022-10-14T01:23:19.197Z,96.83
2022-10-14T01:25:54.574Z,97.21
2022-10-14T01:28:27.058Z,97.03
2022-10-14T01:30:59.558Z,97.02
2022-10-14T01:33:29.395Z,96.93
2022-10-14T01:36:02.658Z,96.87
2022-10-14T01:38:32.803Z,96.55
2022-10-14T01:41:04.913Z,96.50
2022-10-14T01:43:33.319Z,96.16
2022-10-14T01:46:04.516Z,96.25
2022-10-14T01:48:33.931Z,96.35
2022-10-14T01:51:03.036Z,96.25
2022-10-14T01:53:33.086Z,96.05
2022-10-14T01:56:00.859Z,96.02
2022-10-14T01:58:29.115Z,95.97
2022-10-14T02:00:57.461Z,96.01
2022-10-14T02:03:26.252Z,95.97
2022-10-14T02:05:56.515Z,95.89
2022-10-14T02:08:30.308Z,95.81
2022-10-14T02:11:07.974Z,96.00
2022-10-14T02:13:45.080Z,96.12
2022-10-14T02:16:17.449Z,96.31
2022-10-14T02:18:52.536Z,96.45
2022-10-14T02:21:24.114Z,96.00
2022-10-14T02:23:56.788Z,95.98
2022-10-14T02:26:25.541Z,96.08
2022-10-14T02:28:54.525Z,96.26
2022-10-14T02:31:22.128Z,96.84
2022-10-14T02:33:53.031Z,96.87
2022-10-14T02:36:22.997Z,96.67
2022-10-14T02:38:51.398Z,96.48
2022-10-14T02:41:20.788Z,96.48
2022-10-14T02:43:48.266Z,95.99
2022-10-14T02:46:15.736Z,96.07
2022-10-14T02:48:43.202Z,95.98
2022-10-14T02:51:12.011Z,96.20
2022-10-14T02:53:39.506Z,95.90
2022-10-14T02:56:07.865Z,95.86
2022-10-14T02:58:35.410Z,95.86
2022-10-14T03:01:02.930Z,95.83
2022-10-14T03:03:30.409Z,95.56
2022-10-14T03:05:57.848Z,95.66
2022-10-14T03:08:26.670Z,95.82
2022-10-14T03:10:54.146Z,95.77
2022-10-14T03:13:21.681Z,96.21
2022-10-14T03:15:49.719Z,96.49
2022-10-14T03:18:17.482Z,96.37
2022-10-14T03:20:45.485Z,96.21
2022-10-14T03:23:14.515Z,96.37
2022-10-14T03:25:44.673Z,96.16
2022-10-14T03:28:12.232Z,96.08
2022-10-14T03:30:39.946Z,95.91
2022-10-14T03:33:08.440Z,95.90
2022-10-14T03:35:36.018Z,95.83
2022-10-14T03:38:03.904Z,95.72
2022-10-14T03:40:31.525Z,95.74
2022-10-14T03:43:01.347Z,95.31
2022-10-14T03:45:29.380Z,95.99
2022-10-14T03:47:57.147Z,96.50
2022-10-14T03:50:24.698Z,96.86
2022-10-14T03:52:55.600Z,96.93
2022-10-14T03:55:23.407Z,96.67
2022-10-14T03:57:51.137Z,96.84
2022-10-14T04:00:20.153Z,97.13
2022-10-14T04:02:47.745Z,96.99
2022-10-14T04:05:15.399Z,97.08
2022-10-14T04:07:43.166Z,96.91
2022-10-14T04:10:10.707Z,97.30
2022-10-14T04:12:40.064Z,97.31
2022-10-14T04:15:08.141Z,97.19
2022-10-14T04:17:36.945Z,97.44
2022-10-14T04:20:05.105Z,97.33
2022-10-14T04:22:33.213Z,97.12
2022-10-14T04:25:00.754Z,97.96
2022-10-14T04:27:28.449Z,98.16
2022-10-14T04:29:55.896Z,98.46
2022-10-14T04:32:23.684Z,98.51
2022-10-14T04:34:53.485Z,98.42
2022-10-14T04:37:20.955Z,98.73
2022-10-14T04:39:48.709Z,98.46
2022-10-14T04:42:16.193Z,98.75
2022-10-14T04:44:43.676Z,98.55
2022-10-14T04:47:11.148Z,98.32
2022-10-14T04:49:38.594Z,98.57
2022-10-14T04:52:07.477Z,98.40
2022-10-14T04:54:34.975Z,98.32
2022-10-14T04:57:02.644Z,98.69
2022-10-14T04:59:30.112Z,98.49
2022-10-14T05:01:57.623Z,98.52
2022-10-14T05:04:25.132Z,98.22
2022-10-14T05:06:52.568Z,98.30
2022-10-14T05:09:21.399Z,98.59
2022-10-14T05:11:48.905Z,98.63
2022-10-14T05:14:16.416Z,98.85
2022-10-14T05:16:43.853Z,98.74
2022-10-14T05:19:11.391Z,98.74
2022-10-14T05:21:38.941Z,98.92
2022-10-14T05:24:06.887Z,98.56
2022-10-14T05:26:35.650Z,98.24
2022-10-14T05:29:03.105Z,98.08
2022-10-14T05:31:30.566Z,98.82
2022-10-14T05:33:58.027Z,98.80
2022-10-14T05:36:25.496Z,98.70
2022-10-14T05:38:56.293Z,98.95
2022-10-14T05:41:24.043Z,99.04
2022-10-14T05:43:52.850Z,98.77
2022-10-14T05:46:20.402Z,98.88
2022-10-14T05:48:47.853Z,98.95
2022-10-14T05:51:15.522Z,99.02
2022-10-14T05:53:43.540Z,98.93
2022-10-14T05:56:11.198Z,98.79
2022-10-14T05:58:38.693Z,98.87
2022-10-14T06:01:09.303Z,98.83
2022-10-14T06:03:36.913Z,99.04
2022-10-14T06:06:04.406Z,98.79
2022-10-14T06:08:31.868Z,98.63
2022-10-14T06:10:59.380Z,98.51
2022-10-14T06:13:27.374Z,98.82
2022-10-14T06:15:54.860Z,98.49
2022-10-14T06:18:23.681Z,98.33
2022-10-14T06:20:54.402Z,97.49
2022-10-14T06:23:22.152Z,97.96
2022-10-14T06:25:49.620Z,97.91
2022-10-14T06:28:17.214Z,98.05
2022-10-14T06:30:50.268Z,98.32
2022-10-14T06:33:17.797Z,98.10
2022-10-14T06:35:46.788Z,97.97
2022-10-14T06:38:14.490Z,98.08
2022-10-14T06:40:42.007Z,98.29
2022-10-14T06:43:10.167Z,98.42
2022-10-14T06:45:37.647Z,98.42
2022-10-14T06:48:05.767Z,98.66
2022-10-14T06:50:33.258Z,98.65
2022-10-14T06:53:02.068Z,98.54
2022-10-14T06:55:29.758Z,98.14
2022-10-14T06:57:57.251Z,98.38
2022-10-14T07:00:25.248Z,98.41
2022-10-14T07:02:52.805Z,98.28
2022-10-14T07:05:20.328Z,98.35
2022-10-14T07:07:47.866Z,98.46
2022-10-14T07:10:16.984Z,98.08
2022-10-14T07:12:44.538Z,97.90
2022-10-14T07:15:12.048Z,98.21
2022-10-14T07:17:40.162Z,98.06
2022-10-14T07:20:08.705Z,98.09
2022-10-14T07:22:38.884Z,98.09
2022-10-14T07:25:08.072Z,98.11
2022-10-14T07:27:36.992Z,97.81
2022-10-14T07:30:05.990Z,97.92
2022-10-14T07:32:36.807Z,97.77
2022-10-14T07:35:04.759Z,97.80
2022-10-14T07:37:32.236Z,97.96
2022-10-14T07:39:59.705Z,97.64
2022-10-14T07:42:27.200Z,97.88
2022-10-14T07:44:57.589Z,97.42
2022-10-14T07:47:25.102Z,97.22
2022-10-14T07:49:52.575Z,97.50
2022-10-14T07:52:20.059Z,97.55
2022-10-14T07:54:47.821Z,97.59
2022-10-14T07:57:16.693Z,97.25
2022-10-14T07:59:44.207Z,97.20
2022-10-14T08:02:13.697Z,97.27
2022-10-14T08:04:41.272Z,97.34
2022-10-14T08:07:08.797Z,96.79
2022-10-14T08:09:37.053Z,97.57
2022-10-14T08:15:11.314Z,97.77
2022-10-14T08:17:40.180Z,97.81
2022-10-14T08:20:08.566Z,97.80
2022-10-14T08:22:36.107Z,97.75
2022-10-14T08:25:03.655Z,97.35
2022-10-14T08:27:31.242Z,97.43
2022-10-14T08:29:58.731Z,97.53
2022-10-14T08:32:26.227Z,98.03
2022-10-14T08:34:55.880Z,97.90
2022-10-14T08:37:23.715Z,97.58
2022-10-14T08:39:51.173Z,97.42
2022-10-14T08:42:29.389Z,97.09
2022-10-14T08:44:59.047Z,96.99
2022-10-14T08:47:38.837Z,96.81
2022-10-14T08:50:10.890Z,97.23
2022-10-14T08:52:41.172Z,96.94
2022-10-14T08:55:18.836Z,96.75
2022-10-14T08:57:50.463Z,96.77
2022-10-14T09:00:18.930Z,96.65
2022-10-14T09:02:48.619Z,96.58
2022-10-14T09:05:19.228Z,96.53
2022-10-14T09:07:47.445Z,96.18
2022-10-14T09:10:19.974Z,96.37
2022-10-14T09:12:47.733Z,96.15
2022-10-14T09:15:21.666Z,96.16
2022-10-14T09:17:53.559Z,96.01
2022-10-14T09:20:23.533Z,96.40
2022-10-14T09:22:59.158Z,96.57
2022-10-14T09:25:27.040Z,96.24
2022-10-14T09:27:54.537Z,95.97
2022-10-14T09:30:22.202Z,95.73
2022-10-14T09:32:51.124Z,95.80
2022-10-14T09:35:25.802Z,96.14
2022-10-14T09:37:54.003Z,96.02
2022-10-14T09:40:33.569Z,96.05
2022-10-14T09:43:05.385Z,95.94
2022-10-14T09:45:49.388Z,96.17
2022-10-14T09:48:18.694Z,95.95
2022-10-14T09:50:52.590Z,96.30
2022-10-14T09:53:27.134Z,95.82
2022-10-14T09:55:56.364Z,95.79
2022-10-14T09:58:30.175Z,95.52
2022-10-14T10:00:58.343Z,95.14
2022-10-14T10:03:27.656Z,94.84
2022-10-14T10:06:05.889Z,94.69
2022-10-14T10:08:34.135Z,94.51
2022-10-14T10:11:06.743Z,94.48
2022-10-14T10:13:44.420Z,94.15
2022-10-14T10:16:21.915Z,93.29
2022-10-14T10:18:49.529Z,93.22
2022-10-14T10:21:19.981Z,92.14
2022-10-14T10:23:52.690Z,92.10
2022-10-14T10:26:25.928Z,91.97
2022-10-14T10:28:55.153Z,91.88
2022-10-14T10:31:33.183Z,91.73
2022-10-14T10:34:07.776Z,91.92
2022-10-14T10:36:39.336Z,91.53
2022-10-14T10:39:15.366Z,92.39
2022-10-14T10:41:58.379Z,92.13
2022-10-14T10:44:51.283Z,91.09
2022-10-14T10:47:32.960Z,91.30
2022-10-14T10:50:10.089Z,90.55
2022-10-14T10:52:49.287Z,90.36
2022-10-14T10:55:24.118Z,91.20
2022-10-14T10:58:02.618Z,90.42
2022-10-14T11:00:36.870Z,90.60
2022-10-14T11:03:18.093Z,91.19
2022-10-14T11:05:54.064Z,90.63
2022-10-14T11:08:50.091Z,90.59
2022-10-14T11:11:40.421Z,89.57
2022-10-14T11:14:17.042Z,90.21
2022-10-14T11:16:50.067Z,90.88
2022-10-14T11:19:22.443Z,91.25
2022-10-14T11:21:55.375Z,91.78
2022-10-14T11:24:29.722Z,92.16
2022-10-14T11:27:01.942Z,92.27
2022-10-14T11:30:06.761Z,92.14
2022-10-14T11:32:42.433Z,92.35
2022-10-14T11:35:19.842Z,93.24
2022-10-14T11:37:56.941Z,92.69
2022-10-14T11:40:28.831Z,93.89
2022-10-14T11:43:10.928Z,93.47
2022-10-14T11:45:46.603Z,93.13
2022-10-14T11:48:23.966Z,93.20
2022-10-14T11:50:56.196Z,93.50
2022-10-14T11:53:27.332Z,93.45
2022-10-14T11:56:01.904Z,94.02
2022-10-14T11:58:31.120Z,93.57
2022-10-14T12:01:04.365Z,94.11
2022-10-14T12:03:43.712Z,93.30
2022-10-14T12:06:13.999Z,93.62
2022-10-14T12:08:50.085Z,93.68
2022-10-14T12:11:27.002Z,93.40
2022-10-14T12:14:00.805Z,93.86
2022-10-14T12:16:28.835Z,94.26
2022-10-14T12:18:57.745Z,93.91
2022-10-14T12:21:30.592Z,93.95
2022-10-14T12:24:00.800Z,94.15
2022-10-14T12:26:46.951Z,94.13
2022-10-14T12:29:15.757Z,94.39
2022-10-14T12:31:49.899Z,94.69
2022-10-14T12:34:37.835Z,95.09
2022-10-14T12:37:45.189Z,95.60
2022-10-14T12:40:29.537Z,95.88
2022-10-14T12:43:04.052Z,95.93
2022-10-14T12:45:33.611Z,95.61
2022-10-14T12:48:07.415Z,95.44
2022-10-14T12:50:37.457Z,96.00
2022-10-14T12:53:06.911Z,96.29
2022-10-14T12:55:38.860Z,95.73
2022-10-14T12:58:07.804Z,96.33
2022-10-14T13:00:37.425Z,96.15
2022-10-14T13:03:06.409Z,96.26
2022-10-14T13:05:37.004Z,96.15
2022-10-14T13:08:12.051Z,96.41
2022-10-14T13:10:48.345Z,96.16
2022-10-14T13:14:04.795Z,96.53
2022-10-14T13:17:15.007Z,96.06
2022-10-14T13:19:44.991Z,95.89
2022-10-14T13:22:38.969Z,95.94
2022-10-14T13:25:15.938Z,96.17
2022-10-14T13:28:13.347Z,96.74
2022-10-14T13:30:51.510Z,97.04
2022-10-14T13:33:24.747Z,96.49
2022-10-14T13:36:00.329Z,96.74
2022-10-14T13:38:28.937Z,97.00
2022-10-14T13:40:57.961Z,97.27
2022-10-14T13:43:29.221Z,96.59
2022-10-14T13:46:03.385Z,96.46
2022-10-14T13:48:34.673Z,96.78
2022-10-14T13:51:31.827Z,97.33
2022-10-14T13:54:10.827Z,97.64
2022-10-14T13:56:38.578Z,97.81
2022-10-14T13:59:39.273Z,97.85
2022-10-14T14:02:14.327Z,97.88
2022-10-14T14:04:48.753Z,98.37
2022-10-14T14:10:08.910Z,98.26
2022-10-14T14:12:36.576Z,98.02
2022-10-14T14:15:05.426Z,98.02
2022-10-14T14:17:33.739Z,98.47
2022-10-14T14:20:10.878Z,97.68
2022-10-14T14:22:43.411Z,98.10
2022-10-14T14:25:33.439Z,97.97
2022-10-14T14:28:02.044Z,97.77
2022-10-14T14:30:31.068Z,97.82
2022-10-14T14:33:00.581Z,97.71
2022-10-14T14:35:30.005Z,97.89
2022-10-14T14:37:58.041Z,97.66
2022-10-14T14:40:27.256Z,98.01
2022-10-14T14:43:00.570Z,98.13
2022-10-14T14:45:30.485Z,97.14
2022-10-14T14:47:59.431Z,97.90
2022-10-14T14:50:31.755Z,97.61
2022-10-14T14:53:03.276Z,97.51
2022-10-14T14:55:39.069Z,97.47
2022-10-14T14:58:14.429Z,97.72
2022-10-14T15:00:45.792Z,97.79
2022-10-14T15:03:13.791Z,97.64
2022-10-14T15:05:42.715Z,97.94
2022-10-14T15:08:20.752Z,97.62
2022-10-14T15:10:50.359Z,97.64
2022-10-14T15:13:45.462Z,97.50
2022-10-14T15:16:13.073Z,97.24
2022-10-14T15:18:43.410Z,97.76
2022-10-14T15:21:20.216Z,97.42
2022-10-14T15:24:03.232Z,97.58
2022-10-14T15:26:34.182Z,97.89
2022-10-14T15:32:06.799Z,97.73
2022-10-14T15:34:35.645Z,97.47
2022-10-14T15:37:04.671Z,97.28
2022-10-14T15:39:32.365Z,97.87
2022-10-14T15:42:00.595Z,97.48
2022-10-14T15:44:28.474Z,98.15
2022-10-14T15:47:15.387Z,97.98
2022-10-14T15:49:45.950Z,97.98
2022-10-14T15:52:18.511Z,98.47
2022-10-14T15:54:48.876Z,98.50
2022-10-14T15:57:16.946Z,98.60
2022-10-14T15:59:44.714Z,98.41
2022-10-14T16:02:16.100Z,98.79
2022-10-14T16:05:00.557Z,98.79
2022-10-14T16:07:32.677Z,98.61
2022-10-14T16:10:00.334Z,98.57
2022-10-14T16:12:27.942Z,98.66
2022-10-14T16:14:55.475Z,99.37
2022-10-14T16:17:23.283Z,99.16
2022-10-14T16:19:50.923Z,98.97
2022-10-14T16:22:18.388Z,99.03
2022-10-14T16:24:47.297Z,99.19
2022-10-14T16:27:14.782Z,99.01
2022-10-14T16:29:42.369Z,98.93
2022-10-14T16:32:10.531Z,98.91
2022-10-14T16:34:38.095Z,99.35
2022-10-14T16:37:07.003Z,99.45
2022-10-14T16:39:34.482Z,99.19
2022-10-14T16:42:03.383Z,99.49
2022-10-14T16:44:31.074Z,99.42
2022-10-14T16:47:13.284Z,99.61
2022-10-14T16:49:41.304Z,99.77
2022-10-14T16:52:09.494Z,99.39
2022-10-14T16:54:37.366Z,98.82
2022-10-14T16:57:07.068Z,99.71
2022-10-14T16:59:37.871Z,99.86
2022-10-14T17:02:06.088Z,100.00
2022-10-14T17:04:33.701Z,99.71
2022-10-14T17:07:07.094Z,99.87
2022-10-14T17:09:35.838Z,99.98
2022-10-14T17:12:05.004Z,100.00
2022-10-14T17:14:34.877Z,100.00
2022-10-14T17:17:02.448Z,100.00
2022-10-14T17:19:31.073Z,100.00
2022-10-14T17:21:59.552Z,100.00
2022-10-14T17:24:27.491Z,100.00
2022-10-14T17:26:55.142Z,100.00
2022-10-14T17:29:22.825Z,100.00
2022-10-14T17:31:51.942Z,100.00
2022-10-14T17:34:19.555Z,100.00
2022-10-14T17:36:47.135Z,100.00
2022-10-14T17:39:22.807Z,100.00
2022-10-14T17:41:56.890Z,100.00
2022-10-14T17:44:24.614Z,100.00
2022-10-14T17:46:54.029Z,100.00
2022-10-14T17:49:21.986Z,100.00
2022-10-14T17:51:49.844Z,100.00
2022-10-14T17:54:17.475Z,100.00
2022-10-14T17:56:45.159Z,100.00
2022-10-14T17:59:14.073Z,100.00
2022-10-14T18:04:30.721Z,100.00
2022-10-14T18:06:58.880Z,100.00
2022-10-14T18:09:26.428Z,100.00
2022-10-14T18:12:08.332Z,100.00
2022-10-14T18:14:36.569Z,100.00
2022-10-14T18:17:05.021Z,100.00
2022-10-14T18:19:34.922Z,100.00
2022-10-14T18:22:02.757Z,100.00
2022-10-14T18:24:30.525Z,100.00
2022-10-14T18:26:58.143Z,100.00
2022-10-14T18:29:26.008Z,100.00
2022-10-14T18:31:53.700Z,100.00
2022-10-14T18:34:22.376Z,100.00
2022-10-14T18:36:51.399Z,100.00
2022-10-14T18:39:20.220Z,100.00
2022-10-14T18:41:47.815Z,100.00
2022-10-14T18:44:15.492Z,100.00
2022-10-14T18:46:43.143Z,100.00
2022-10-14T18:49:12.354Z,100.00
2022-10-14T18:51:41.206Z,100.00
2022-10-14T18:54:13.725Z,100.00
2022-10-14T18:56:41.807Z,100.00
2022-10-14T18:59:11.062Z,100.00
2022-10-14T19:01:39.416Z,100.00
2022-10-14T19:04:08.558Z,100.00
2022-10-14T19:06:37.068Z,100.00
2022-10-14T19:09:05.388Z,100.00
2022-10-14T19:11:35.542Z,100.00
2022-10-14T19:14:05.217Z,100.00
2022-10-14T19:16:33.930Z,100.00
2022-10-14T19:19:03.975Z,100.00
2022-10-14T19:21:32.275Z,100.00
2022-10-14T19:24:01.514Z,100.00
2022-10-14T19:26:30.947Z,100.00
2022-10-14T19:29:01.120Z,100.00
2022-10-14T19:31:30.801Z,100.00
2022-10-14T19:33:58.939Z,100.00
2022-10-14T19:36:27.181Z,100.00
2022-10-14T19:38:57.793Z,100.00
2022-10-14T19:41:26.220Z,100.00
2022-10-14T19:43:54.462Z,100.00
2022-10-14T19:46:27.146Z,100.00
2022-10-14T19:48:56.752Z,100.00
2022-10-14T19:51:24.603Z,100.00
2022-10-14T19:53:52.477Z,100.00
2022-10-14T19:56:20.662Z,100.00
2022-10-14T19:58:51.108Z,100.00
2022-10-14T20:01:19.589Z,100.00
2022-10-14T20:03:48.622Z,100.00
2022-10-14T20:06:16.506Z,100.00
2022-10-14T20:08:45.379Z,100.00
2022-10-14T20:11:15.111Z,100.00
2022-10-14T20:13:44.356Z,100.00
2022-10-14T20:16:12.727Z,100.00
2022-10-14T20:18:40.435Z,100.00
2022-10-14T20:21:11.768Z,100.00
2022-10-14T20:23:40.340Z,100.00
2022-10-14T20:26:09.698Z,100.00
2022-10-14T20:28:37.743Z,100.00
2022-10-14T20:31:07.119Z,100.00
2022-10-14T20:33:34.744Z,100.00
2022-10-14T20:36:02.852Z,100.00
2022-10-14T20:38:32.044Z,100.00
2022-10-14T20:41:04.711Z,100.00
2022-10-14T20:43:32.256Z,100.00
2022-10-14T20:45:59.886Z,100.00
2022-10-14T20:48:27.532Z,100.00
2022-10-14T20:50:55.107Z,100.00
2022-10-14T20:53:22.755Z,100.00
2022-10-14T20:55:51.778Z,100.00
2022-10-14T20:58:20.867Z,100.00
2022-10-14T21:00:48.497Z,100.00
2022-10-14T21:03:16.351Z,100.00
2022-10-14T21:05:44.979Z,100.00
2022-10-14T21:08:12.642Z,100.00
2022-10-14T21:10:40.547Z,100.00
2022-10-14T21:13:09.483Z,100.00
2022-10-14T21:15:37.021Z,100.00
2022-10-14T21:18:04.768Z,100.00
2022-10-14T21:20:35.422Z,100.00
2022-10-14T21:23:02.999Z,100.00
2022-10-14T21:25:30.601Z,100.00
2022-10-14T21:27:58.177Z,100.00
2022-10-14T21:30:27.175Z,100.00
2022-10-14T21:32:54.747Z,100.00
2022-10-14T21:35:22.313Z,100.00
2022-10-14T21:37:49.810Z,100.00
2022-10-14T21:40:17.465Z,100.00
2022-10-14T21:42:45.060Z,100.00
2022-10-14T21:45:12.648Z,100.00
2022-10-14T21:47:41.653Z,100.00
2022-10-14T21:50:10.015Z,100.00
2022-10-14T21:52:37.595Z,100.00
2022-10-14T21:55:05.715Z,100.00
2022-10-14T21:57:33.290Z,100.00
2022-10-14T22:00:00.852Z,100.00
2022-10-14T22:02:28.443Z,100.00
2022-10-14T22:04:57.362Z,100.00
2022-10-14T22:07:25.403Z,100.00
2022-10-14T22:09:53.256Z,100.00
2022-10-14T22:12:20.769Z,100.00
2022-10-14T22:14:48.300Z,100.00
2022-10-14T22:17:16.115Z,100.00
2022-10-14T22:19:43.698Z,100.00
2022-10-14T22:22:12.623Z,100.00
2022-10-14T22:24:40.248Z,100.00
2022-10-14T22:27:07.830Z,100.00
2022-10-14T22:29:35.509Z,100.00
2022-10-14T22:32:02.998Z,100.00
2022-10-14T22:34:30.532Z,100.00
2022-10-14T22:36:59.472Z,100.00
2022-10-14T22:39:28.414Z,100.00
2022-10-14T22:41:56.000Z,100.00
2022-10-14T22:44:23.521Z,100.00
2022-10-14T22:46:51.081Z,100.00
2022-10-14T22:49:18.720Z,100.00
2022-10-14T22:51:46.322Z,100.00
2022-10-14T22:54:13.837Z,100.00
2022-10-14T22:56:42.857Z,100.00
2022-10-14T22:59:11.698Z,100.00
2022-10-14T23:01:45.420Z,100.00
2022-10-14T23:04:13.005Z,100.00
2022-10-14T23:06:43.627Z,100.00
2022-10-14T23:09:11.464Z,100.00
2022-10-14T23:11:39.270Z,100.00
2022-10-14T23:14:08.379Z,100.00
2022-10-14T23:16:36.243Z,100.00
2022-10-14T23:19:04.136Z,100.00
2022-10-14T23:21:32.826Z,100.00
2022-10-14T23:24:02.104Z,100.00
2022-10-14T23:26:33.073Z,100.00
2022-10-14T23:29:01.694Z,100.00
2022-10-14T23:31:38.051Z,100.00
2022-10-14T23:34:08.030Z,100.00
2022-10-14T23:36:35.634Z,100.00
2022-10-14T23:39:03.761Z,100.00
2022-10-14T23:41:31.376Z,99.99
2022-10-14T23:43:58.913Z,100.00
2022-10-14T23:46:26.510Z,100.00
2022-10-14T23:49:07.460Z,100.00
2022-10-14T23:51:48.702Z,99.91
2022-10-14T23:54:16.313Z,100.00
2022-10-14T23:56:43.800Z,100.00
2022-10-14T23:59:11.574Z,100.00
